Relevés stations proches


LFBH - La Rochelle, Charente Maritime
Mise à jour: 19/02/2018 15:30
Couvert
Couvert
 Wind from NO
Vent: NO 7 km/h
Température: 10°C
Refroidissement éolien: 9°C
Point de rosée: 9°C
Humidité: 94%
Baromètre: 1018 hPa
Ciel: Couvert
Visibilité: 10 km
Détails plafond nuageux: Couvert 122 m
2018/02/19 15:30 LFBH 191530Z AUTO 32004KT 290V350 9999 OVC004 10/09 Q1018 TEMPO 1500 RADZ
LFBC - Cognac, Charente
Mise à jour: 19/02/2018 15:30
Couvert
Couvert
 Wind from NO
Vent: NO 11 km/h
Température: 11°C
Point de rosée: 10°C
Humidité: 94%
Baromètre: 1018 hPa
Ciel: Couvert
Visibilité: 10 km
Détails plafond nuageux: Couvert 274 m
2018/02/19 15:30 LFBC 191530Z AUTO 32006KT 280V350 9999 OVC009 11/10 Q1018 TEMPO 2000 DZRA BKN002
 
LFBU - Angoulème, Charente
Mise à jour: 19/02/2018 15:30
Couvert
Couvert
 Wind from ONO
Vent: ONO 9 km/h
Température: 8°C
Refroidissement éolien: 6°C
Point de rosée: 7°C
Humidité: 93%
Baromètre: 1018 hPa
Ciel: Couvert
Visibilité: 10 km
Détails plafond nuageux: Couvert 183 m
2018/02/19 15:30 LFBU 191530Z AUTO 29005KT 9999 OVC006 08/07 Q1018 TEMPO 2500 RADZ
LFRI - La Roche sur Yon, Vendée
Mise à jour: 19/02/2018 15:30
Couvert
Couvert
 Wind from NO
Vent: NO 13 km/h
Température: 11°C
Point de rosée: 9°C
Humidité: 88%
Baromètre: 1018 hPa
Ciel: Couvert
Visibilité: 10 km
Détails plafond nuageux: Couvert 305 m
2018/02/19 15:30 LFRI 191530Z AUTO 32007KT 9999 OVC010 11/09 Q1018 TEMPO 4000 -DZ
 
LFBI - Poitiers, Vienne
Mise à jour: 19/02/2018 15:30
Couvert
Couvert
 Wind from O
Vent: O 6 km/h
Température: 9°C
Point de rosée: 8°C
Humidité: 94%
Baromètre: 1017 hPa
Ciel: Couvert
Visibilité: 10 km
Détails plafond nuageux: Couvert 305 m
2018/02/19 15:30 LFBI 191530Z AUTO 27003KT 250V310 9999 OVC010 09/08 Q1017 TEMPO 2500 RADZ
LFRS - Nantes, Loire Atlantique
Mise à jour: 19/02/2018 15:30
Couvert
Couvert
 Wind from NO
Vent: NO 7 km/h
Température: 12°C
Point de rosée: 11°C
Humidité: 94%
Baromètre: 1018 hPa
Ciel: Couvert
Visibilité: 10 km
Détails plafond nuageux: Couvert 518 m
2018/02/19 15:30 LFRS 191530Z AUTO 32004KT 9999 OVC017 12/11 Q1018 BECMG OVC005
 
LFBD - Bordeaux, Gironde
Mise à jour: 19/02/2018 15:30
Pluie légère, Couvert
Pluie légère, Couvert
 Wind from NNE
Vent: NNE 6 km/h
Température: 10°C
Point de rosée: 9°C
Humidité: 94%
Baromètre: 1018 hPa
Ciel: Pluie légère
Ciel: Couvert
Visibilité: 10 km
Détails plafond nuageux: Couvert 152 m
2018/02/19 15:30 LFBD 191530Z AUTO 02003KT 340V050 9999 -RA OVC005 10/09 Q1018 TEMPO 1500 RADZ
LFBL - Limoges, Haute Vienne
Mise à jour: 19/02/2018 15:30
Couvert
Couvert
 Wind from ONO
Vent: ONO 9 km/h
Température: 7°C
Refroidissement éolien: 6°C
Point de rosée: 4°C
Humidité: 81%
Baromètre: 1017 hPa
Ciel: Couvert
Visibilité: 10 km
Détails plafond nuageux: Nuageux 396 m
Couvert 579 m
2018/02/19 15:30 LFBL 191530Z AUTO 30005KT 260V340 9999 BKN013 OVC019 07/04 Q1017 TEMPO 4000 -RADZ BKN005